メインページ
METAR-TAF:

METAR-TAF

空港 :

Abadeh, イラン

緯度: 31-11N, 経度: 052-40E, 海抜: 2004m

現時点の気象観測

当レポートは1時間15分前の17:00(UTC)に作成
の風 4kt
気温 5°C
湿度 45%
気圧 1024 hPa
視程10km以上
高度4000ftの雲は散在している
高度10000ftの千切れ雲あり

METAR: OISA 171700Z 09004KT 9999 SCT040 BKN100 05/M06 Q1023 A3024

時間: 21:45 (18:15 UTC)


TAF: 見つかりません

4,000以上の空港の気象観測と天気予報(METAR報とTAF報)

利用可能な観測所は地図上に黄色い丸と赤い丸で示す。

丸の上にカーソルを重ねると観測所名を参照できる。

次にクリックすると気象観測と天気予報を参照できる。

マップの切り替え:黒色「×」印の緑ボタンをクリックして拡大、「-」印の緑ボタンをクリックして縮小、緑色の三角印をクリックして隣りの地図に切り替え


METAR-TAF: